Terminal Aerodrome Forecast
Issued by NWS

Home | Current Version | Previous Version | Text Only | Print | Product List | Glossary On
Versions: 1 2 3 4 5 6 7 8 9 10 11 12 13 14 15
391
FTUS42 TJSJ 201730
TAFJSJ
TAF
TJSJ 201730Z 2018/2118 33008KT P6SM SCT025
     FM202000 27012KT P6SM VCSH FEW030 SCT070 SCT100
     FM210100 35008KT P6SM FEW030=

USA.gov is the U.S. government's official web portal to all federal, state and local government web resources and services.